Time;durP1;ratioP1;P1;durP2;ratioP2;P2;SDS_P1;SDS_P2;PMS_P1;PMS_P2;Temp;Humidity;BMP_temperature;BMP_pressure;BME280_temperature;BME280_humidity;BME280_pressure;Samples;Min_cycle;Max_cycle;Signal;HPM_P1;HPM_P2
2022/09/17 00:01:23;;;;;;;24.30;18.15;;;;;;;16.38;100.00;99691.58;1696953;83;21169;-73
2022/09/17 00:03:53;;;;;;;23.52;17.55;;;;;;;16.34;100.00;99690.18;1758683;80;21502;-72
2022/09/17 00:06:23;;;;;;;26.97;18.62;;;;;;;16.43;100.00;99690.74;1740930;81;21005;-72
2022/09/17 00:08:53;;;;;;;25.68;18.52;;;;;;;16.38;100.00;99691.13;1762156;80;21036;-72
2022/09/17 00:11:27;;;;;;;27.67;19.32;;;;;;;16.38;100.00;99688.98;1759072;81;21033;-72
2022/09/17 00:13:57;;;;;;;31.10;21.02;;;;;;;16.45;100.00;99694.03;1701967;83;21087;-72
2022/09/17 00:16:30;;;;;;;30.72;20.12;;;;;;;16.48;100.00;99695.06;1762129;80;21074;-72
2022/09/17 00:18:58;;;;;;;29.00;19.62;;;;;;;16.34;100.00;99695.38;1762997;80;21048;-72
2022/09/17 00:21:26;;;;;;;29.35;20.45;;;;;;;16.24;100.00;99695.31;1691317;84;21052;-72
2022/09/17 00:23:57;;;;;;;45.45;23.50;;;;;;;16.23;100.00;99692.36;1759027;81;20997;-73
2022/09/17 00:26:25;;;;;;;35.85;24.05;;;;;;;16.29;100.00;99695.75;1727227;82;21031;-73
2022/09/17 00:28:55;;;;;;;33.90;22.50;;;;;;;16.32;100.00;99695.97;1764397;80;21465;-72
2022/09/17 00:31:23;;;;;;;36.35;23.70;;;;;;;16.27;100.00;99689.86;1757225;80;21022;-72
2022/09/17 00:33:50;;;;;;;37.10;24.15;;;;;;;16.26;100.00;99680.89;1758813;80;21079;-73
2022/09/17 00:36:19;;;;;;;36.83;22.65;;;;;;;16.28;100.00;99690.67;1760835;80;21026;-72
2022/09/17 00:38:57;;;;;;;36.30;22.13;;;;;;;16.30;100.00;99686.19;1760706;80;21024;-71
2022/09/17 00:41:28;;;;;;;29.87;19.87;;;;;;;16.25;100.00;99690.45;1758592;81;21001;-72
2022/09/17 00:44:03;;;;;;;24.72;18.50;;;;;;;16.20;100.00;99690.02;1706423;83;21043;-72
2022/09/17 00:46:41;;;;;;;31.60;20.80;;;;;;;16.13;100.00;99696.64;1725393;83;21082;-73
2022/09/17 00:49:22;;;;;;;28.00;20.40;;;;;;;16.12;100.00;99687.19;1704804;84;21575;-72
2022/09/17 00:52:04;;;;;;;27.15;19.62;;;;;;;16.09;100.00;99699.95;1703841;84;21060;-73
2022/09/17 00:54:34;;;;;;;26.48;19.92;;;;;;;16.08;100.00;99706.55;1687841;84;21040;-72
2022/09/17 00:57:03;;;;;;;27.60;19.10;;;;;;;16.03;100.00;99709.53;1771471;81;21020;-72
2022/09/17 00:59:30;;;;;;;29.20;20.17;;;;;;;15.99;100.00;99711.53;1702448;83;21051;-72
2022/09/17 01:01:57;;;;;;;25.15;19.55;;;;;;;15.99;100.00;99711.53;1759834;80;21099;-72
2022/09/17 01:04:26;;;;;;;26.77;18.27;;;;;;;16.03;100.00;99703.85;1760077;81;21499;-71
2022/09/17 01:07:26;;;;;;;27.67;19.15;;;;;;;15.98;100.00;99712.98;1758487;81;21030;-72
2022/09/17 01:10:23;;;;;;;27.25;19.02;;;;;;;15.97;100.00;99717.33;1765531;80;21621;-73
2022/09/17 01:12:58;;;;;;;27.95;19.25;;;;;;;16.02;100.00;99720.39;1695490;83;21090;-72
2022/09/17 01:15:43;;;;;;;25.60;19.32;;;;;;;16.01;100.00;99718.73;1722137;82;21540;-73
2022/09/17 01:18:28;;;;;;;;;;;;;;;16.00;100.00;99731.38;1707246;83;21540;-73
2022/09/17 01:21:15;;;;;;;28.32;19.48;;;;;;;16.00;100.00;99725.36;1695967;84;20142;-72
2022/09/17 01:24:01;;;;;;;28.27;20.15;;;;;;;16.01;100.00;99719.21;1715181;82;21091;-71
2022/09/17 01:27:00;;;;;;;24.25;18.45;;;;;;;15.95;100.00;99733.49;1706962;82;21124;-73
2022/09/17 01:29:44;;;;;;;24.10;18.30;;;;;;;15.84;100.00;99732.23;1728643;82;21040;-73
2022/09/17 01:32:38;;;;;;;24.55;18.07;;;;;;;15.81;100.00;99734.60;1671815;83;21153;-72
2022/09/17 01:35:19;;;;;;;24.87;17.77;;;;;;;15.82;100.00;99733.64;1708320;83;21600;-73
2022/09/17 01:38:14;;;;;;;27.13;20.40;;;;;;;15.79;100.00;99748.63;1707427;83;22178;-72
2022/09/17 01:40:48;;;;;;;29.55;19.48;;;;;;;15.73;100.00;99745.20;1758053;81;21004;-73
2022/09/17 01:43:21;;;;;;;25.92;19.37;;;;;;;15.73;100.00;99743.42;1766287;80;21247;-73
2022/09/17 01:45:59;;;;;;;27.45;19.05;;;;;;;15.70;100.00;99747.55;1758908;81;21069;-73
2022/09/17 01:48:34;;;;;;;26.95;19.92;;;;;;;15.66;100.00;99750.02;1763177;80;20997;-72
2022/09/17 01:51:15;;;;;;;29.15;19.60;;;;;;;15.61;100.00;99754.28;1759113;80;21058;-73
2022/09/17 01:53:51;;;;;;;23.90;18.90;;;;;;;15.59;100.00;99752.72;1759058;80;21028;-73
2022/09/17 01:56:25;;;;;;;24.82;18.42;;;;;;;15.58;100.00;99751.91;1764201;80;21034;-72
2022/09/17 01:58:57;;;;;;;21.50;17.23;;;;;;;15.57;100.00;99751.56;1758157;81;21052;-72
2022/09/17 02:01:25;;;;;;;20.57;16.40;;;;;;;15.50;100.00;99741.78;1742294;81;21102;-73
2022/09/17 02:04:02;;;;;;;24.65;19.05;;;;;;;15.54;100.00;99739.30;1757536;81;21013;-72
2022/09/17 02:06:35;;;;;;;25.88;19.23;;;;;;;15.59;100.00;99741.90;1700457;83;21019;-73
2022/09/17 02:09:19;;;;;;;28.00;19.02;;;;;;;15.61;100.00;99744.35;1758334;81;21547;-72
2022/09/17 02:11:51;;;;;;;25.97;19.02;;;;;;;15.67;100.00;99750.84;1689083;83;21554;-72
2022/09/17 02:14:24;;;;;;;25.88;18.77;;;;;;;15.66;100.00;99758.28;1764879;80;21528;-72
2022/09/17 02:16:56;;;;;;;25.75;18.95;;;;;;;15.59;100.00;99757.47;1759019;80;21086;-73
2022/09/17 02:19:30;;;;;;;26.85;18.90;;;;;;;15.62;100.00;99749.91;1761709;80;21026;-72
2022/09/17 02:22:24;;;;;;;27.10;18.45;;;;;;;15.63;100.00;99747.66;1758237;81;21046;-73
2022/09/17 02:25:24;;;;;;;23.75;18.27;;;;;;;15.61;100.00;99754.73;1766503;80;21000;-73
2022/09/17 02:28:01;;;;;;;25.08;18.77;;;;;;;15.56;100.00;99756.39;1699353;83;21154;-73
2022/09/17 02:30:29;;;;;;;22.80;17.77;;;;;;;15.46;100.00;99754.63;1727411;82;21051;-73
2022/09/17 02:32:56;;;;;;;25.30;19.02;;;;;;;15.42;100.00;99761.33;1698043;83;21686;-73
2022/09/17 02:35:24;;;;;;;25.17;18.98;;;;;;;15.39;100.00;99758.98;1699990;83;21020;-72
2022/09/17 02:37:52;;;;;;;26.40;19.70;;;;;;;15.34;100.00;99762.86;1766220;80;21051;-72
2022/09/17 02:40:22;;;;;;;25.40;19.37;;;;;;;15.41;100.00;99754.51;1759348;81;21056;-73
2022/09/17 02:43:13;;;;;;;26.87;19.27;;;;;;;15.47;100.00;99752.38;1756621;81;21033;-73
2022/09/17 02:46:05;;;;;;;25.00;18.57;;;;;;;15.47;100.00;99767.94;1710318;83;21578;-73
2022/09/17 02:48:53;;;;;;;31.25;19.67;;;;;;;15.43;100.00;99775.15;1723274;82;21110;-72
2022/09/17 02:51:34;;;;;;;27.60;19.73;;;;;;;15.36;100.00;99773.95;1705889;83;21043;-73
2022/09/17 02:54:34;;;;;;;24.50;18.37;;;;;;;15.40;100.00;99761.10;1714474;83;21090;-73
2022/09/17 02:57:18;;;;;;;24.70;18.05;;;;;;;15.47;100.00;99753.22;1706123;83;21040;-72
2022/09/17 03:00:07;;;;;;;;;;;;;;;15.43;100.00;99763.48;1707148;83;21072;-73
2022/09/17 03:02:48;;;;;;;24.40;18.25;;;;;;;15.51;100.00;99760.27;1710295;83;20106;-73
2022/09/17 03:05:19;;;;;;;25.95;18.12;;;;;;;15.60;100.00;99768.17;1713041;83;21052;-73
2022/09/17 03:07:46;;;;;;;23.25;17.42;;;;;;;15.57;100.00;99777.95;1711973;83;21082;-72
2022/09/17 03:10:14;;;;;;;22.22;17.95;;;;;;;15.52;100.00;99765.83;1729485;82;21106;-72
2022/09/17 03:12:42;;;;;;;22.02;17.02;;;;;;;15.50;100.00;99766.42;1732895;81;21083;-73
2022/09/17 03:15:09;;;;;;;21.27;17.00;;;;;;;15.51;100.00;99768.05;1717266;82;21029;-72
2022/09/17 03:17:36;;;;;;;19.87;15.72;;;;;;;15.45;100.00;99775.01;1713481;82;21052;-72
2022/09/17 03:20:05;;;;;;;22.02;16.90;;;;;;;15.38;100.00;99774.17;1704659;84;21103;-72
2022/09/17 03:22:32;;;;;;;21.10;16.85;;;;;;;15.35;100.00;99769.23;1704952;83;21040;-72
2022/09/17 03:24:59;;;;;;;22.90;16.25;;;;;;;15.34;100.00;99768.87;1704590;84;21052;-73
2022/09/17 03:27:26;;;;;;;18.92;15.83;;;;;;;15.35;100.00;99768.42;1704632;84;21085;-72
2022/09/17 03:29:53;;;;;;;22.65;17.17;;;;;;;15.35;100.00;99764.05;1717954;81;21087;-72
2022/09/17 03:32:20;;;;;;;22.35;16.85;;;;;;;15.37;100.00;99765.24;1769052;80;21070;-72
2022/09/17 03:34:46;;;;;;;21.85;17.20;;;;;;;15.42;100.00;99773.48;1762466;80;21028;-73
2022/09/17 03:37:14;;;;;;;20.08;16.60;;;;;;;15.51;100.00;99775.39;1758439;81;21036;-72
2022/09/17 03:39:41;;;;;;;20.62;16.05;;;;;;;15.60;100.00;99779.03;1758001;80;21099;-73
2022/09/17 03:42:07;;;;;;;21.45;17.07;;;;;;;15.66;100.00;99791.53;1757113;81;21006;-73
2022/09/17 03:44:34;;;;;;;20.57;16.40;;;;;;;15.65;100.00;99792.94;1761996;81;21488;-73
2022/09/17 03:47:01;;;;;;;24.43;16.30;;;;;;;15.64;100.00;99793.42;1738339;80;21069;-73
2022/09/17 03:49:28;;;;;;;19.45;16.20;;;;;;;15.67;100.00;99793.17;1760141;81;21092;-73
2022/09/17 03:51:56;;;;;;;18.42;15.15;;;;;;;15.76;100.00;99782.61;1694915;83;21050;-73
2022/09/17 03:54:24;;;;;;;17.87;14.63;;;;;;;15.81;100.00;99787.80;1761758;81;21364;-73
2022/09/17 03:56:51;;;;;;;16.35;13.65;;;;;;;15.89;100.00;99784.59;1762588;81;21015;-73
2022/09/17 03:59:18;;;;;;;17.75;14.00;;;;;;;16.01;100.00;99778.44;1763217;80;21029;-73
2022/09/17 04:01:45;;;;;;;15.58;13.45;;;;;;;16.12;100.00;99781.50;1759001;80;21048;-73
2022/09/17 04:04:12;;;;;;;18.87;14.23;;;;;;;16.12;100.00;99783.25;1758537;81;21028;-73
2022/09/17 04:06:39;;;;;;;20.45;15.20;;;;;;;16.22;100.00;99785.50;1760582;81;21083;-73
2022/09/17 04:09:06;;;;;;;21.35;15.45;;;;;;;16.34;100.00;99791.47;1695576;83;21091;-73
2022/09/17 04:11:33;;;;;;;18.60;15.15;;;;;;;16.50;100.00;99794.97;1769184;80;21031;-74
2022/09/17 04:14:00;;;;;;;17.35;14.13;;;;;;;16.61;100.00;99799.66;1762256;80;21612;-73
2022/09/17 04:16:27;;;;;;;16.80;13.22;;;;;;;16.65;100.00;99810.64;1765678;80;21554;-73
2022/09/17 04:18:54;;;;;;;18.50;14.13;;;;;;;16.68;100.00;99821.25;1695794;83;21055;-73
2022/09/17 04:21:21;;;;;;;16.73;13.45;;;;;;;16.69;100.00;99827.63;1707025;83;21554;-73
2022/09/17 04:23:48;;;;;;;16.60;12.93;;;;;;;16.72;100.00;99823.47;1696412;83;21072;-73
2022/09/17 04:26:15;;;;;;;16.27;13.50;;;;;;;16.75;100.00;99815.92;1696606;83;21524;-73
2022/09/17 04:28:42;;;;;;;16.80;13.78;;;;;;;16.82;100.00;99824.41;1775845;80;21090;-73
2022/09/17 04:31:09;;;;;;;15.43;13.43;;;;;;;16.94;100.00;99827.80;1758744;81;21044;-73
2022/09/17 04:33:38;;;;;;;15.58;12.85;;;;;;;17.07;100.00;99822.88;1736894;81;21543;-73
2022/09/17 04:36:05;;;;;;;15.70;12.90;;;;;;;17.06;100.00;99831.16;1731263;82;21024;-73
2022/09/17 04:38:32;;;;;;;14.55;11.73;;;;;;;17.14;100.00;99826.64;1726283;82;21551;-73
2022/09/17 04:41:00;;;;;;;13.78;11.28;;;;;;;17.33;100.00;99826.75;1726073;82;21046;-73
2022/09/17 04:43:26;;;;;;;12.75;10.85;;;;;;;17.35;100.00;99842.23;1726998;82;21062;-73
2022/09/17 04:45:53;;;;;;;11.85;10.55;;;;;;;17.40;100.00;99840.91;1726387;82;21048;-73
2022/09/17 04:48:20;;;;;;;12.65;11.03;;;;;;;17.41;100.00;99826.11;1733254;82;21090;-73
2022/09/17 04:50:48;;;;;;;12.60;11.08;;;;;;;17.43;100.00;99823.72;1732284;82;21105;-73
2022/09/17 04:53:15;;;;;;;12.30;11.00;;;;;;;17.49;100.00;99829.38;1726097;82;21048;-73
2022/09/17 04:55:43;;;;;;;12.35;11.12;;;;;;;17.52;100.00;99836.95;1738557;82;21571;-73
2022/09/17 04:58:10;;;;;;;11.60;10.40;;;;;;;17.62;100.00;99824.32;1726927;82;21201;-73
2022/09/17 05:00:37;;;;;;;13.05;11.08;;;;;;;17.71;100.00;99817.50;1722517;82;21070;-73
2022/09/17 05:03:04;;;;;;;11.53;10.43;;;;;;;17.71;100.00;99821.89;1726010;82;21043;-72
2022/09/17 05:05:31;;;;;;;11.40;10.30;;;;;;;17.91;100.00;99820.23;1722979;82;21036;-73
2022/09/17 05:07:58;;;;;;;11.95;10.75;;;;;;;18.08;100.00;99822.67;1728972;82;21071;-73
2022/09/17 05:10:25;;;;;;;11.88;10.43;;;;;;;18.24;100.00;99839.10;1730914;82;21134;-72
2022/09/17 05:12:56;;;;;;;11.93;10.70;;;;;;;18.39;100.00;99842.98;1718734;82;21527;-73
2022/09/17 05:15:25;;;;;;;10.55;9.35;;;;;;;18.46;100.00;99858.41;1726054;82;21090;-73
2022/09/17 05:17:52;;;;;;;11.28;10.15;;;;;;;18.54;100.00;99867.69;1746900;82;21027;-73
2022/09/17 05:20:20;;;;;;;11.08;9.98;;;;;;;18.38;100.00;99860.87;1735381;82;21091;-72
2022/09/17 05:22:50;;;;;;;11.43;10.23;;;;;;;18.64;100.00;99841.64;1725248;82;21441;-72
2022/09/17 05:25:23;;;;;;;12.37;11.08;;;;;;;18.81;100.00;99861.02;1723996;82;21031;-72
2022/09/17 05:27:50;;;;;;;13.15;10.08;;;;;;;18.93;100.00;99868.23;1727693;82;21027;-73
2022/09/17 05:30:17;;;;;;;11.60;10.43;;;;;;;19.04;100.00;99858.13;1737803;82;21056;-72
2022/09/17 05:32:44;;;;;;;11.43;10.10;;;;;;;19.32;100.00;99861.22;1726291;82;21618;-72
2022/09/17 05:35:12;;;;;;;11.43;10.25;;;;;;;19.48;100.00;99858.49;1727271;82;21076;-72
2022/09/17 05:37:39;;;;;;;11.75;10.55;;;;;;;19.60;100.00;99867.31;1734123;82;21060;-73
2022/09/17 05:40:09;;;;;;;11.80;10.43;;;;;;;19.68;100.00;99864.00;1723178;82;21185;-73
2022/09/17 05:42:36;;;;;;;14.47;10.40;;;;;;;19.84;100.00;99874.38;1732749;82;21059;-73
2022/09/17 05:45:04;;;;;;;11.97;10.88;;;;;;;20.01;100.00;99873.59;1737946;82;21559;-73
2022/09/17 05:47:31;;;;;;;12.80;11.50;;;;;;;20.18;100.00;99881.98;1724256;81;21535;-73
2022/09/17 05:49:59;;;;;;;13.03;11.73;;;;;;;20.27;100.00;99883.39;1739910;82;21043;-73
2022/09/17 05:52:27;;;;;;;13.60;11.28;;;;;;;20.31;100.00;99879.52;1732984;82;21515;-73
2022/09/17 05:54:56;;;;;;;12.93;11.60;;;;;;;20.43;100.00;99877.03;1730936;82;21024;-73
2022/09/17 05:57:23;;;;;;;13.18;11.68;;;;;;;20.56;100.00;99881.91;1725053;82;21537;-73
2022/09/17 05:59:50;;;;;;;12.78;11.38;;;;;;;20.68;100.00;99896.94;1732879;82;21027;-74
2022/09/17 06:02:18;;;;;;;11.68;10.48;;;;;;;20.73;100.00;99891.60;1727287;82;21088;-73
2022/09/17 06:04:45;;;;;;;12.93;10.85;;;;;;;20.76;100.00;99890.48;1732711;82;21066;-73
2022/09/17 06:07:12;;;;;;;13.50;12.10;;;;;;;20.78;100.00;99902.92;1739762;81;21085;-73
2022/09/17 06:09:41;;;;;;;13.88;12.40;;;;;;;20.77;100.00;99896.88;1734983;82;21261;-73
2022/09/17 06:12:09;;;;;;;15.93;13.95;;;;;;;20.74;100.00;99893.73;1733403;82;21595;-74
2022/09/17 06:14:35;;;;;;;17.12;13.48;;;;;;;20.73;100.00;99898.14;1731321;82;21165;-73
2022/09/17 06:17:02;;;;;;;16.80;14.75;;;;;;;20.87;100.00;99895.50;1717813;82;21086;-73
2022/09/17 06:19:31;;;;;;;16.12;14.53;;;;;;;20.83;100.00;99899.39;1733930;81;21058;-73
2022/09/17 06:21:58;;;;;;;15.75;14.05;;;;;;;20.92;100.00;99906.82;1728898;82;21156;-72
2022/09/17 06:24:26;;;;;;;17.00;14.73;;;;;;;20.72;100.00;99889.13;1734261;82;21047;-73
2022/09/17 06:26:54;;;;;;;17.77;15.88;;;;;;;20.81;100.00;99890.87;1738326;82;21059;-73
2022/09/17 06:29:21;;;;;;;18.23;16.32;;;;;;;20.87;100.00;99881.11;1726314;81;21048;-73
2022/09/17 06:31:49;;;;;;;19.23;17.17;;;;;;;21.04;100.00;99882.56;1729471;82;21043;-73
2022/09/17 06:34:17;;;;;;;20.05;17.67;;;;;;;21.24;100.00;99881.91;1738164;82;21035;-73
2022/09/17 06:36:44;;;;;;;16.27;14.50;;;;;;;21.43;100.00;99878.30;1738498;82;21542;-72
2022/09/17 06:39:12;;;;;;;25.25;19.87;;;;;;;21.53;100.00;99873.79;1736133;82;21038;-73
2022/09/17 06:41:42;;;;;;;18.00;13.35;;;;;;;21.72;100.00;99889.80;1731791;82;21127;-73
2022/09/17 06:44:09;;;;;;;19.57;16.23;;;;;;;21.81;100.00;99894.09;1731420;82;21063;-73
2022/09/17 06:46:37;;;;;;;22.50;17.55;;;;;;;22.08;100.00;99900.97;1722179;82;21020;-73
2022/09/17 06:49:04;;;;;;;23.38;18.25;;;;;;;22.38;100.00;99895.70;1731028;82;21070;-73
2022/09/17 06:51:31;;;;;;;25.30;19.75;;;;;;;22.77;100.00;99901.70;1735156;82;21034;-73
2022/09/17 06:54:00;;;;;;;23.12;19.17;;;;;;;23.17;100.00;99911.09;1719163;82;20995;-73
2022/09/17 06:56:27;;;;;;;22.37;19.23;;;;;;;23.52;100.00;99925.70;1741695;81;21032;-74
2022/09/17 06:58:54;;;;;;;26.23;20.80;;;;;;;23.67;100.00;99927.66;1691409;83;21055;-73
2022/09/17 07:01:21;;;;;;;22.70;18.05;;;;;;;23.84;100.00;99929.78;1737075;81;21012;-73
2022/09/17 07:03:48;;;;;;;22.13;18.10;;;;;;;24.06;100.00;99935.62;1734551;82;21035;-73
2022/09/17 07:06:15;;;;;;;16.57;14.78;;;;;;;24.33;100.00;99940.13;1719852;82;21090;-72
2022/09/17 07:08:42;;;;;;;22.17;18.98;;;;;;;24.66;100.00;99938.70;1762847;80;21019;-74
2022/09/17 07:11:10;;;;;;;25.52;18.52;;;;;;;25.07;100.00;99945.83;1766179;80;21071;-74
2022/09/17 07:13:37;;;;;;;15.68;12.63;;;;;;;25.11;100.00;99958.16;1697094;83;21078;-74
2022/09/17 07:16:06;;;;;;;20.37;16.52;;;;;;;25.47;100.00;99968.13;1767691;80;21059;-74
2022/09/17 07:18:34;;;;;;;16.48;13.28;;;;;;;25.58;100.00;99975.08;1776831;81;21582;-75
2022/09/17 07:21:04;;;;;;;13.70;11.78;;;;;;;25.88;100.00;99991.47;1753426;80;21090;-74
2022/09/17 07:23:34;;;;;;;13.75;11.20;;;;;;;26.31;100.00;100014.12;1763650;80;21026;-74
2022/09/17 07:26:10;;;;;;;12.93;11.28;;;;;;;26.31;100.00;100014.12;1763860;80;21047;-74
2022/09/17 07:28:39;;;;;;;14.95;11.28;;;;;;;26.31;100.00;100023.35;1762279;81;21138;-74
2022/09/17 07:31:07;;;;;;;11.45;9.88;;;;;;;26.42;100.00;100014.14;1767702;80;21056;-73
2022/09/17 07:33:36;;;;;;;13.35;10.63;;;;;;;26.55;100.00;100023.57;1752470;80;21098;-74
2022/09/17 07:36:10;;;;;;;11.85;10.43;;;;;;;26.50;100.00;100025.92;1755057;81;21044;-75
2022/09/17 07:38:38;;;;;;;13.00;9.25;;;;;;;26.32;100.00;100019.22;1693316;83;21057;-74
2022/09/17 07:41:12;;;;;;;10.90;9.18;;;;;;;26.17;100.00;100009.96;1726956;82;21128;-73
2022/09/17 07:43:40;;;;;;;11.28;8.88;;;;;;;26.00;100.00;100015.11;1762857;81;21030;-74
2022/09/17 07:46:11;;;;;;;9.60;6.70;;;;;;;25.96;100.00;100013.33;1694809;84;21055;-73
2022/09/17 07:48:38;;;;;;;11.43;8.08;;;;;;;25.98;100.00;100007.37;1752937;81;21043;-74
2022/09/17 07:51:05;;;;;;;8.58;7.00;;;;;;;25.99;100.00;100010.81;1760284;81;21078;-74
2022/09/17 07:53:32;;;;;;;8.18;7.37;;;;;;;26.05;100.00;100010.60;1703716;84;21096;-74
2022/09/17 07:56:01;;;;;;;8.88;7.83;;;;;;;26.20;100.00;100011.44;1707241;83;21118;-75
2022/09/17 07:58:32;;;;;;;9.58;7.03;;;;;;;26.56;100.00;100020.75;1714123;83;21630;-74
2022/09/17 08:01:04;;;;;;;8.80;7.35;;;;;;;26.98;100.00;100022.38;1695936;83;21122;-74
2022/09/17 08:03:32;;;;;;;9.20;6.45;;;;;;;27.28;100.00;100030.23;1689942;84;21094;-75
2022/09/17 08:06:09;;;;;;;7.08;6.30;;;;;;;27.66;99.05;100035.27;1693069;83;21091;-74
2022/09/17 08:08:38;;;;;;;7.72;6.33;;;;;;;27.74;98.01;100025.88;1720606;82;21140;-75
2022/09/17 08:11:14;;;;;;;7.35;6.60;;;;;;;27.56;97.90;100027.66;1720994;82;21666;-73
2022/09/17 08:13:45;;;;;;;9.95;6.80;;;;;;;27.50;98.85;100026.58;1745624;82;21108;-72
2022/09/17 08:16:13;;;;;;;8.95;6.97;;;;;;;27.37;97.31;100034.38;1727736;82;21132;-73
2022/09/17 08:18:42;;;;;;;8.70;7.87;;;;;;;27.44;97.02;100036.59;1723804;82;21136;-73
2022/09/17 08:21:13;;;;;;;7.53;6.75;;;;;;;27.60;98.34;100034.70;1721143;82;21009;-72
2022/09/17 08:23:42;;;;;;;8.90;7.05;;;;;;;27.82;96.52;100034.98;1724865;82;21014;-72
2022/09/17 08:26:21;;;;;;;8.38;7.17;;;;;;;27.88;94.71;100030.77;1729063;82;21084;-72
2022/09/17 08:28:54;;;;;;;8.55;7.75;;;;;;;28.00;94.68;100034.50;1731689;82;21049;-72
2022/09/17 08:31:23;;;;;;;9.10;7.87;;;;;;;28.01;94.64;100037.48;1730102;82;21065;-73
2022/09/17 08:33:50;;;;;;;9.13;8.23;;;;;;;28.17;93.99;100036.36;1731255;82;21148;-74
2022/09/17 08:36:20;;;;;;;11.10;8.50;;;;;;;28.25;92.51;100027.45;1736683;82;21216;-73
2022/09/17 08:38:48;;;;;;;8.10;7.28;;;;;;;28.31;92.52;100024.03;1731950;82;21073;-73
2022/09/17 08:41:23;;;;;;;8.70;7.80;;;;;;;28.21;93.46;100023.05;1738801;82;21085;-74
2022/09/17 08:44:07;;;;;;;8.95;7.90;;;;;;;28.43;91.88;100017.16;1721698;82;21100;-73
2022/09/17 08:46:52;;;;;;;11.18;8.60;;;;;;;28.47;89.43;100025.55;1724140;82;21102;-73
2022/09/17 08:49:37;;;;;;;;;;;;;;;28.55;90.12;100033.34;1728454;82;21158;-73
2022/09/17 08:52:52;;;;;;;10.13;8.30;;;;;;;28.44;88.88;100025.92;1721526;82;20130;-73
2022/09/17 08:55:42;;;;;;;9.03;8.10;;;;;;;28.08;90.51;100021.64;1740331;81;21033;-74
2022/09/17 08:58:26;;;;;;;8.80;7.95;;;;;;;28.14;90.55;100023.02;1727483;82;21063;-72
2022/09/17 09:01:17;;;;;;;8.40;7.58;;;;;;;28.29;93.29;100025.55;1748219;81;21013;-72
2022/09/17 09:04:02;;;;;;;8.98;7.87;;;;;;;28.44;92.04;100016.66;1723507;81;21535;-72
2022/09/17 09:06:41;;;;;;;9.78;8.78;;;;;;;28.64;89.06;100018.09;1728379;81;21516;-72
2022/09/17 09:09:14;;;;;;;9.03;8.13;;;;;;;28.53;87.99;100012.36;1742472;80;21523;-72
2022/09/17 09:11:43;;;;;;;9.70;8.70;;;;;;;28.55;88.09;100014.30;1742862;80;21066;-72
2022/09/17 09:14:25;;;;;;;9.55;8.33;;;;;;;28.69;89.64;100014.33;1738813;81;21038;-73
2022/09/17 09:16:54;;;;;;;9.08;8.18;;;;;;;28.45;90.00;100008.52;1741598;80;21023;-72
2022/09/17 09:19:31;;;;;;;8.33;7.53;;;;;;;28.53;88.02;100020.81;1739633;80;21086;-73
2022/09/17 09:22:19;;;;;;;8.90;7.50;;;;;;;28.70;84.47;100018.11;1735659;81;21027;-72
2022/09/17 09:25:00;;;;;;;9.00;7.53;;;;;;;28.80;85.11;100014.28;1731778;81;21011;-73
2022/09/17 09:27:34;;;;;;;8.60;7.70;;;;;;;28.99;87.02;100006.08;1733446;80;21065;-73
2022/09/17 09:30:14;;;;;;;8.35;7.55;;;;;;;28.94;85.91;100007.48;1740995;81;21051;-72
2022/09/17 09:33:13;;;;;;;8.80;6.97;;;;;;;28.95;85.96;100002.52;1742666;80;21526;-73
2022/09/17 09:35:43;;;;;;;7.05;6.40;;;;;;;29.05;82.82;100001.30;1718052;82;21063;-73
2022/09/17 09:38:38;;;;;;;8.33;7.42;;;;;;;28.85;82.72;100008.67;1751277;81;21558;-76
2022/09/17 09:41:14;;;;;;;11.40;8.60;;;;;;;28.73;83.71;100007.63;1745474;82;21122;-73
2022/09/17 09:43:47;;;;;;;8.98;8.08;;;;;;;28.63;89.63;100007.18;1750695;81;21046;-72
2022/09/17 09:46:49;;;;;;;9.00;7.65;;;;;;;28.58;89.53;100000.35;1754199;81;21098;-73
2022/09/17 09:49:55;;;;;;;6.22;5.62;;;;;;;28.45;90.09;100003.22;1748631;81;21190;-74
2022/09/17 09:52:55;;;;;;;8.05;7.30;;;;;;;28.40;87.98;99997.69;1758637;81;21073;-74
2022/09/17 09:55:48;;;;;;;10.30;7.83;;;;;;;28.57;87.77;99999.55;1756177;81;21074;-73
2022/09/17 09:58:37;;;;;;;9.05;8.00;;;;;;;28.80;86.10;100005.02;1746481;81;21039;-74
2022/09/17 10:01:15;;;;;;;8.78;7.87;;;;;;;28.79;86.50;100002.05;1751010;81;21034;-74
2022/09/17 10:03:48;;;;;;;8.50;7.25;;;;;;;29.14;84.84;99999.62;1751758;81;21625;-73
2022/09/17 10:06:14;;;;;;;7.40;6.70;;;;;;;29.17;82.82;99999.71;1747895;81;21047;-74
2022/09/17 10:08:55;;;;;;;8.25;7.03;;;;;;;28.98;83.01;100003.94;1742526;81;21071;-73
2022/09/17 10:11:27;;;;;;;9.28;6.78;;;;;;;28.83;84.87;99994.81;1755103;81;21074;-74
2022/09/17 10:14:13;;;;;;;8.28;6.75;;;;;;;28.76;85.91;99988.19;1754234;81;21050;-74
2022/09/17 10:16:40;;;;;;;8.45;7.00;;;;;;;28.89;84.15;99990.07;1708026;82;21063;-72
2022/09/17 10:19:13;;;;;;;7.45;6.72;;;;;;;28.87;85.21;99986.77;1748695;81;21707;-74
2022/09/17 10:21:42;;;;;;;7.80;7.00;;;;;;;28.88;85.54;99980.99;1725358;82;21564;-74
2022/09/17 10:24:30;;;;;;;9.65;7.58;;;;;;;28.67;86.49;99977.48;1735709;82;21088;-74
2022/09/17 10:27:09;;;;;;;7.75;6.95;;;;;;;28.25;84.73;99966.07;1718907;83;21648;-74
2022/09/17 10:29:44;;;;;;;9.10;7.30;;;;;;;28.13;88.54;99967.12;1718979;82;21049;-74
2022/09/17 10:32:17;;;;;;;7.85;6.22;;;;;;;28.11;88.81;99959.89;1719648;82;21014;-73
2022/09/17 10:35:17;;;;;;;8.28;7.20;;;;;;;28.15;90.34;99957.67;1734446;82;21053;-74
2022/09/17 10:37:47;;;;;;;8.48;6.15;;;;;;;28.12;89.12;99965.51;1731810;82;21663;-74
2022/09/17 10:40:25;;;;;;;7.50;6.08;;;;;;;28.06;88.83;99974.23;1718829;82;21084;-74
2022/09/17 10:43:16;;;;;;;6.62;6.03;;;;;;;28.27;86.45;99991.84;1725880;82;21020;-74
2022/09/17 10:45:47;;;;;;;6.30;5.70;;;;;;;28.34;83.90;99991.86;1689590;82;21561;-74
2022/09/17 10:48:19;;;;;;;6.92;5.72;;;;;;;27.91;82.97;99984.91;1709174;82;21069;-73
2022/09/17 10:50:53;;;;;;;8.43;6.80;;;;;;;27.71;86.53;99972.84;1699486;82;21084;-74
2022/09/17 10:53:23;;;;;;;7.70;7.00;;;;;;;27.60;89.82;99978.67;1729842;82;21116;-74
2022/09/17 10:56:10;;;;;;;7.35;6.60;;;;;;;27.57;91.38;99986.97;1722331;82;21560;-73
2022/09/17 10:59:03;;;;;;;7.80;6.83;;;;;;;27.56;93.35;99991.45;1723296;82;21106;-73
2022/09/17 11:02:08;;;;;;;7.50;6.80;;;;;;;27.34;97.68;100003.86;1727170;82;21065;-73
2022/09/17 11:04:54;;;;;;;;;;;;;;;26.85;100.00;100021.73;1722334;82;21152;-73
2022/09/17 11:07:53;;;;;;;8.60;7.25;;;;;;;26.07;100.00;100002.81;1727911;82;20154;-74
2022/09/17 11:10:37;;;;;;;8.35;7.55;;;;;;;26.08;100.00;99997.88;1720698;82;22015;-74
2022/09/17 11:13:35;;;;;;;8.28;7.47;;;;;;;26.06;100.00;99985.37;1736269;82;21128;-74
2022/09/17 11:16:21;;;;;;;11.03;7.95;;;;;;;26.09;100.00;99976.27;1735774;82;21054;-73
2022/09/17 11:18:59;;;;;;;8.88;7.97;;;;;;;26.17;100.00;99951.11;1733359;82;21061;-73
2022/09/17 11:21:52;;;;;;;12.07;8.83;;;;;;;26.31;100.00;99942.88;1734684;82;21092;-73
2022/09/17 11:24:36;;;;;;;9.78;8.20;;;;;;;26.56;100.00;99944.69;1721010;82;21082;-72
2022/09/17 11:27:14;;;;;;;24.07;8.78;;;;;;;26.71;100.00;99924.89;1727706;82;21053;-73
2022/09/17 11:30:19;;;;;;;10.68;9.33;;;;;;;26.84;100.00;99918.41;1724933;82;21037;-73
2022/09/17 11:32:55;;;;;;;;;;;;;;;26.93;100.00;99905.91;1724868;82;21679;-73
2022/09/17 11:35:36;;;;;;;11.55;9.80;;;;;;;27.32;100.00;99902.80;1718482;82;20140;-74
2022/09/17 11:38:13;;;;;;;10.65;8.90;;;;;;;27.78;100.00;99898.85;1729739;82;21540;-74
2022/09/17 11:41:07;;;;;;;12.80;9.03;;;;;;;28.07;100.00;99916.31;1712989;82;21083;-74
2022/09/17 11:43:38;;;;;;;11.22;10.10;;;;;;;28.12;100.00;99910.42;1734761;80;21106;-74
2022/09/17 11:46:10;;;;;;;13.05;9.68;;;;;;;27.87;100.00;99905.62;1739712;82;21031;-74